createdAt,value
2023-05-02T00:01:38.462Z,9.30
2023-05-02T00:04:25.772Z,9.30
2023-05-02T00:07:15.233Z,9.30
2023-05-02T00:10:03.359Z,9.30
2023-05-02T00:12:50.462Z,9.30
2023-05-02T00:15:38.532Z,9.20
2023-05-02T00:18:26.135Z,9.20
2023-05-02T00:21:14.008Z,9.20
2023-05-02T00:24:03.516Z,9.20
2023-05-02T00:26:50.697Z,9.20
2023-05-02T00:29:39.348Z,9.20
2023-05-02T00:32:26.905Z,9.10
2023-05-02T00:35:14.979Z,9.20
2023-05-02T00:38:02.625Z,9.10
2023-05-02T00:40:52.207Z,9.10
2023-05-02T00:43:40.216Z,9.00
2023-05-02T00:46:28.163Z,9.00
2023-05-02T00:49:15.244Z,9.00
2023-05-02T00:52:03.028Z,9.00
2023-05-02T00:54:50.647Z,9.00
2023-05-02T00:57:40.061Z,9.00
2023-05-02T01:00:36.762Z,9.00
2023-05-02T01:03:36.947Z,9.00
2023-05-02T01:06:35.515Z,9.00
2023-05-02T01:09:34.486Z,9.00
2023-05-02T01:12:29.416Z,8.90
2023-05-02T01:15:22.854Z,8.90
2023-05-02T01:18:12.189Z,8.80
2023-05-02T01:21:03.566Z,8.80
2023-05-02T01:24:01.198Z,8.80
2023-05-02T01:26:55.179Z,8.80
2023-05-02T01:29:45.810Z,8.70
2023-05-02T01:32:35.237Z,8.70
2023-05-02T01:35:24.666Z,8.70
2023-05-02T01:38:16.092Z,8.70
2023-05-02T01:41:07.651Z,8.70
2023-05-02T01:43:57.801Z,8.70
2023-05-02T01:46:48.667Z,8.60
2023-05-02T01:49:36.517Z,8.60
2023-05-02T01:52:25.747Z,8.60
2023-05-02T01:55:16.128Z,8.60
2023-05-02T01:58:05.291Z,8.50
2023-05-02T02:00:54.136Z,8.50
2023-05-02T02:03:44.313Z,8.50
2023-05-02T02:06:31.592Z,8.60
2023-05-02T02:09:20.736Z,8.60
2023-05-02T02:12:12.555Z,8.60
2023-05-02T02:15:04.173Z,8.60
2023-05-02T02:17:57.438Z,8.60
2023-05-02T02:20:47.125Z,8.60
2023-05-02T02:23:37.051Z,8.60
2023-05-02T02:26:24.288Z,8.50
2023-05-02T02:29:12.816Z,8.60
2023-05-02T02:32:01.055Z,8.60
2023-05-02T02:34:48.912Z,8.60
2023-05-02T02:37:41.558Z,8.50
2023-05-02T02:40:31.533Z,8.60
2023-05-02T02:43:24.941Z,8.60
2023-05-02T02:46:22.248Z,8.60
2023-05-02T02:49:19.999Z,8.60
2023-05-02T02:52:12.234Z,8.60
2023-05-02T02:55:11.858Z,8.50
2023-05-02T02:58:04.161Z,8.60
2023-05-02T03:00:53.599Z,8.60
2023-05-02T03:03:42.677Z,8.60
2023-05-02T03:06:31.404Z,8.60
2023-05-02T03:09:18.839Z,8.60
2023-05-02T03:12:12.961Z,8.50
2023-05-02T03:15:11.668Z,8.50
2023-05-02T03:17:59.596Z,8.60
2023-05-02T03:20:46.956Z,8.50
2023-05-02T03:23:35.020Z,8.50
2023-05-02T03:26:22.973Z,8.50
2023-05-02T03:29:12.836Z,8.50
2023-05-02T03:32:03.226Z,8.40
2023-05-02T03:34:50.997Z,8.40
2023-05-02T03:37:39.296Z,8.40
2023-05-02T03:40:27.817Z,8.30
2023-05-02T03:43:17.674Z,8.30
2023-05-02T03:46:09.640Z,8.30
2023-05-02T03:49:00.068Z,8.20
2023-05-02T03:51:48.277Z,8.20
2023-05-02T03:54:40.202Z,8.20
2023-05-02T03:57:30.862Z,8.10
2023-05-02T04:00:19.180Z,8.10
2023-05-02T04:03:14.589Z,8.10
2023-05-02T04:06:04.988Z,8.10
2023-05-02T04:08:52.394Z,8.10
2023-05-02T04:11:42.412Z,8.10
2023-05-02T04:14:31.904Z,8.00
2023-05-02T04:17:19.935Z,8.00
2023-05-02T04:20:12.268Z,8.10
2023-05-02T04:23:03.905Z,8.00
2023-05-02T04:25:53.402Z,8.10
2023-05-02T04:28:42.352Z,8.10
2023-05-02T04:31:31.867Z,8.10
2023-05-02T04:34:20.411Z,8.20
2023-05-02T04:37:08.967Z,8.20
2023-05-02T04:39:57.678Z,8.20
2023-05-02T04:42:47.387Z,8.30
2023-05-02T04:45:39.467Z,8.40
2023-05-02T04:48:32.832Z,8.40
2023-05-02T04:51:20.500Z,8.50
2023-05-02T04:54:11.421Z,8.50
2023-05-02T04:57:03.299Z,8.50
2023-05-02T04:59:52.784Z,8.60
2023-05-02T05:02:42.267Z,8.60
2023-05-02T05:05:31.590Z,8.60
2023-05-02T05:08:19.875Z,8.70
2023-05-02T05:11:08.869Z,8.70
2023-05-02T05:13:57.616Z,8.80
2023-05-02T05:16:46.671Z,8.90
2023-05-02T05:19:35.081Z,8.90
2023-05-02T05:22:22.275Z,9.00
2023-05-02T05:25:10.983Z,9.00
2023-05-02T05:28:01.047Z,9.20
2023-05-02T05:30:50.935Z,9.30
2023-05-02T05:33:41.209Z,9.50
2023-05-02T05:36:31.852Z,9.60
2023-05-02T05:39:18.991Z,9.60
2023-05-02T05:42:10.323Z,9.70
2023-05-02T05:45:00.657Z,9.80
2023-05-02T05:47:49.176Z,9.70
2023-05-02T05:50:36.365Z,9.80
2023-05-02T05:53:24.371Z,9.80
2023-05-02T05:56:12.731Z,9.80
2023-05-02T05:59:04.260Z,9.80
2023-05-02T06:01:54.132Z,9.90
2023-05-02T06:04:43.430Z,9.80
2023-05-02T06:07:31.081Z,9.90
2023-05-02T06:10:18.418Z,10.00
2023-05-02T06:13:06.765Z,10.10
2023-05-02T06:16:01.616Z,10.10
2023-05-02T06:18:52.998Z,10.30
2023-05-02T06:21:40.692Z,10.50
2023-05-02T06:24:27.935Z,10.40
2023-05-02T06:27:15.560Z,10.50
2023-05-02T06:30:02.939Z,10.50
2023-05-02T06:32:50.770Z,10.50
2023-05-02T06:35:39.203Z,10.60
2023-05-02T06:38:26.894Z,10.70
2023-05-02T06:41:18.329Z,10.90
2023-05-02T06:44:05.903Z,11.00
2023-05-02T06:46:53.941Z,11.10
2023-05-02T06:49:41.068Z,11.30
2023-05-02T06:52:30.204Z,11.20
2023-05-02T06:55:17.369Z,11.20
2023-05-02T06:58:05.114Z,11.40
2023-05-02T07:00:52.435Z,11.50
2023-05-02T07:03:40.227Z,11.60
2023-05-02T07:06:27.896Z,11.70
2023-05-02T07:09:16.784Z,11.70
2023-05-02T07:12:06.765Z,11.70
2023-05-02T07:14:54.341Z,11.70
2023-05-02T07:17:41.848Z,11.80
2023-05-02T07:20:29.010Z,11.80
2023-05-02T07:23:16.234Z,11.80
2023-05-02T07:26:06.425Z,11.90
2023-05-02T07:28:53.830Z,11.80
2023-05-02T07:31:42.177Z,11.80
2023-05-02T07:34:29.865Z,11.80
2023-05-02T07:37:17.598Z,11.70
2023-05-02T07:40:06.066Z,11.70
2023-05-02T07:42:55.597Z,11.90
2023-05-02T07:45:42.892Z,12.00
2023-05-02T07:48:31.669Z,12.10
2023-05-02T07:51:21.936Z,12.20
2023-05-02T07:54:16.072Z,12.30
2023-05-02T07:57:05.235Z,12.40
2023-05-02T07:59:53.821Z,12.60
2023-05-02T08:02:42.488Z,12.80
2023-05-02T08:05:29.826Z,13.00
2023-05-02T08:08:17.545Z,13.10
2023-05-02T08:11:04.915Z,13.20
2023-05-02T08:13:53.208Z,13.70
2023-05-02T08:16:42.974Z,13.70
2023-05-02T08:19:32.923Z,13.90
2023-05-02T08:22:20.133Z,14.20
2023-05-02T08:25:08.286Z,14.20
2023-05-02T08:27:55.856Z,14.00
2023-05-02T08:30:45.732Z,14.00
2023-05-02T08:33:34.579Z,14.10
2023-05-02T08:36:22.872Z,14.30
2023-05-02T08:39:10.676Z,14.30
2023-05-02T08:41:58.982Z,14.30
2023-05-02T08:44:46.475Z,14.30
2023-05-02T08:47:36.139Z,14.30
2023-05-02T08:50:25.064Z,14.50
2023-05-02T08:53:14.905Z,14.40
2023-05-02T08:56:02.633Z,14.50
2023-05-02T08:58:51.521Z,14.80
2023-05-02T09:01:45.779Z,14.70
2023-05-02T09:04:36.720Z,14.80
2023-05-02T09:07:25.762Z,14.80
2023-05-02T09:10:13.370Z,14.90
2023-05-02T09:13:29.802Z,14.80
2023-05-02T09:16:20.246Z,14.50
2023-05-02T09:19:07.499Z,14.60
2023-05-02T09:22:01.882Z,14.80
2023-05-02T09:24:55.801Z,15.10
2023-05-02T09:27:52.024Z,15.00
2023-05-02T09:30:39.284Z,14.90
2023-05-02T09:33:28.107Z,15.00
2023-05-02T09:36:17.521Z,15.00
2023-05-02T09:39:10.803Z,15.10
2023-05-02T09:41:59.614Z,14.90
2023-05-02T09:44:48.488Z,15.10
2023-05-02T09:47:36.608Z,15.40
2023-05-02T09:50:35.437Z,15.40
2023-05-02T09:53:24.709Z,15.50
2023-05-02T09:56:12.974Z,15.40
2023-05-02T09:59:14.650Z,15.20
2023-05-02T10:02:04.946Z,15.10
2023-05-02T10:04:53.940Z,15.00
2023-05-02T10:07:42.205Z,15.20
2023-05-02T10:10:31.681Z,15.40
2023-05-02T10:13:24.953Z,15.40
2023-05-02T10:16:20.144Z,15.40
2023-05-02T10:19:09.895Z,15.50
2023-05-02T10:21:58.249Z,15.90
2023-05-02T10:24:48.761Z,16.20
2023-05-02T10:27:37.629Z,16.50
2023-05-02T10:30:26.787Z,16.50
2023-05-02T10:33:16.993Z,16.40
2023-05-02T10:36:05.807Z,16.70
2023-05-02T10:38:54.320Z,16.60
2023-05-02T10:41:43.443Z,16.60
2023-05-02T10:44:34.813Z,16.50
2023-05-02T10:47:24.417Z,16.40
2023-05-02T10:50:12.976Z,16.20
2023-05-02T10:53:27.624Z,15.70
2023-05-02T10:56:18.051Z,14.80
2023-05-02T10:59:27.409Z,13.80
2023-05-02T11:02:49.358Z,13.20
2023-05-02T11:06:08.271Z,12.30
2023-05-02T11:09:32.021Z,11.80
2023-05-02T11:12:44.786Z,11.50
2023-05-02T11:15:54.941Z,11.50
2023-05-02T11:19:01.128Z,11.50
2023-05-02T11:21:54.290Z,11.50
2023-05-02T11:24:42.812Z,11.60
2023-05-02T11:27:39.512Z,11.70
2023-05-02T11:30:43.976Z,11.80
2023-05-02T11:33:32.596Z,11.80
2023-05-02T11:36:30.092Z,11.80
2023-05-02T11:39:24.875Z,11.80
2023-05-02T11:42:28.973Z,11.60
2023-05-02T11:45:17.595Z,11.60
2023-05-02T11:48:07.411Z,11.40
2023-05-02T11:50:57.281Z,11.30
2023-05-02T11:53:45.573Z,11.30
2023-05-02T11:56:34.219Z,11.30
2023-05-02T11:59:22.746Z,11.40
2023-05-02T12:02:10.394Z,11.40
2023-05-02T12:04:57.626Z,11.50
2023-05-02T12:07:46.981Z,11.40
2023-05-02T12:10:38.145Z,11.60
2023-05-02T12:13:27.159Z,11.80
2023-05-02T12:16:15.006Z,11.90
2023-05-02T12:19:03.475Z,12.10
2023-05-02T12:21:51.514Z,12.10
2023-05-02T12:24:39.200Z,12.10
2023-05-02T12:27:27.847Z,12.30
2023-05-02T12:30:27.153Z,12.50
2023-05-02T12:33:15.745Z,12.70
2023-05-02T12:36:07.167Z,12.70
2023-05-02T12:38:57.590Z,12.80
2023-05-02T12:41:46.049Z,13.00
2023-05-02T12:44:38.771Z,13.00
2023-05-02T12:47:27.418Z,13.20
2023-05-02T12:50:15.620Z,13.40
2023-05-02T12:53:03.919Z,13.60
2023-05-02T12:56:03.069Z,13.70
2023-05-02T12:58:50.999Z,13.60
2023-05-02T13:01:38.995Z,13.80
2023-05-02T13:04:36.165Z,14.10
2023-05-02T13:07:23.395Z,14.00
2023-05-02T13:10:12.754Z,13.70
2023-05-02T13:13:01.641Z,13.50
2023-05-02T13:15:49.099Z,13.40
2023-05-02T13:18:36.379Z,13.20
2023-05-02T13:21:24.815Z,12.90
2023-05-02T13:24:13.625Z,12.80
2023-05-02T13:27:02.396Z,12.90
2023-05-02T13:29:49.735Z,13.00
2023-05-02T13:32:37.648Z,13.10
2023-05-02T13:35:25.987Z,13.30
2023-05-02T13:38:14.559Z,13.60
2023-05-02T13:41:02.213Z,13.90
2023-05-02T13:43:49.442Z,14.00
2023-05-02T13:46:37.737Z,14.00
2023-05-02T13:49:25.887Z,14.00
2023-05-02T13:52:13.152Z,14.10
2023-05-02T13:55:01.772Z,14.00
2023-05-02T13:57:50.385Z,14.10
2023-05-02T14:00:37.978Z,14.20
2023-05-02T14:03:26.457Z,14.30
2023-05-02T14:06:14.214Z,14.40
2023-05-02T14:09:01.370Z,14.50
2023-05-02T14:11:50.863Z,14.40
2023-05-02T14:14:38.181Z,14.30
2023-05-02T14:17:26.789Z,14.20
2023-05-02T14:20:13.945Z,14.20
2023-05-02T14:23:02.081Z,14.20
2023-05-02T14:25:49.257Z,14.20
2023-05-02T14:28:39.111Z,14.00
2023-05-02T14:31:27.818Z,13.90
2023-05-02T14:34:15.499Z,13.80
2023-05-02T14:37:02.707Z,13.50
2023-05-02T14:39:54.880Z,13.20
2023-05-02T14:42:42.390Z,13.00
2023-05-02T14:45:31.761Z,12.80
2023-05-02T14:48:18.928Z,12.50
2023-05-02T14:51:07.769Z,12.40
2023-05-02T14:53:54.909Z,12.30
2023-05-02T14:56:43.027Z,12.30
2023-05-02T14:59:30.652Z,12.10
2023-05-02T15:02:20.141Z,12.10
2023-05-02T15:05:11.905Z,12.10
2023-05-02T15:08:00.735Z,12.20
2023-05-02T15:10:47.871Z,12.10
2023-05-02T15:13:35.990Z,12.00
2023-05-02T15:16:23.244Z,12.00
2023-05-02T15:19:12.663Z,11.90
2023-05-02T15:21:59.909Z,11.90
2023-05-02T15:24:47.981Z,11.80
2023-05-02T15:27:35.219Z,11.80
2023-05-02T15:30:23.614Z,11.80
2023-05-02T15:33:10.912Z,11.80
2023-05-02T15:36:00.602Z,11.90
2023-05-02T15:38:47.711Z,11.90
2023-05-02T15:41:35.826Z,11.90
2023-05-02T15:44:23.007Z,11.80
2023-05-02T15:47:11.103Z,11.90
2023-05-02T15:49:58.814Z,12.00
2023-05-02T15:52:47.579Z,12.00
2023-05-02T15:55:35.363Z,12.10
2023-05-02T15:58:23.505Z,12.10
2023-05-02T16:01:11.203Z,12.10
2023-05-02T16:03:58.467Z,12.10
2023-05-02T16:06:45.844Z,12.00
2023-05-02T16:09:34.600Z,12.10
2023-05-02T16:12:21.891Z,12.10
2023-05-02T16:15:09.498Z,12.20
2023-05-02T16:17:57.781Z,12.20
2023-05-02T16:20:47.053Z,12.20
2023-05-02T16:23:35.154Z,12.20
2023-05-02T16:26:23.734Z,12.10
2023-05-02T16:29:11.434Z,12.10
2023-05-02T16:31:59.671Z,12.10
2023-05-02T16:34:47.561Z,12.10
2023-05-02T16:37:35.527Z,12.10
2023-05-02T16:40:23.633Z,12.10
2023-05-02T16:43:12.188Z,12.10
2023-05-02T16:46:01.893Z,11.70
2023-05-02T16:48:49.038Z,11.30
2023-05-02T16:51:36.643Z,10.90
2023-05-02T16:54:23.891Z,10.70
2023-05-02T16:57:11.433Z,10.40
2023-05-02T17:00:00.558Z,10.10
2023-05-02T17:02:48.661Z,10.10
2023-05-02T17:05:36.655Z,9.90
2023-05-02T17:08:24.140Z,9.90
2023-05-02T17:11:12.051Z,9.90
2023-05-02T17:13:59.758Z,10.00
2023-05-02T17:16:48.416Z,10.00
2023-05-02T17:19:36.744Z,9.90
2023-05-02T17:22:24.345Z,10.00
2023-05-02T17:25:12.425Z,10.00
2023-05-02T17:27:59.720Z,10.00
2023-05-02T17:30:48.228Z,10.00
2023-05-02T17:33:36.905Z,10.00
2023-05-02T17:36:25.009Z,9.90
2023-05-02T17:39:13.416Z,9.90
2023-05-02T17:42:01.970Z,9.90
2023-05-02T17:44:49.682Z,9.70
2023-05-02T17:47:36.925Z,9.60
2023-05-02T17:50:26.596Z,9.50
2023-05-02T17:53:15.924Z,9.30
2023-05-02T17:56:04.205Z,9.20
2023-05-02T17:58:52.389Z,9.20
2023-05-02T18:01:39.812Z,9.30
2023-05-02T18:04:27.827Z,9.30
2023-05-02T18:07:17.812Z,9.20
2023-05-02T18:10:07.165Z,9.30
2023-05-02T18:12:54.573Z,9.40
2023-05-02T18:15:42.729Z,9.50
2023-05-02T18:18:29.895Z,9.60
2023-05-02T18:21:21.928Z,9.70
2023-05-02T18:24:10.516Z,9.70
2023-05-02T18:26:58.343Z,9.70
2023-05-02T18:29:45.561Z,9.70
2023-05-02T18:32:33.502Z,9.60
2023-05-02T18:35:21.342Z,9.60
2023-05-02T18:38:08.975Z,9.60
2023-05-02T18:40:57.453Z,9.60
2023-05-02T18:43:45.485Z,9.60
2023-05-02T18:46:34.320Z,9.60
2023-05-02T18:49:21.945Z,9.50
2023-05-02T18:52:09.879Z,9.60
2023-05-02T18:54:57.305Z,9.60
2023-05-02T18:57:46.564Z,9.60
2023-05-02T19:00:36.316Z,9.50
2023-05-02T19:03:27.216Z,9.60
2023-05-02T19:06:17.531Z,9.50
2023-05-02T19:09:05.877Z,9.60
2023-05-02T19:11:54.949Z,9.50
2023-05-02T19:14:44.736Z,9.50
2023-05-02T19:17:32.182Z,9.40
2023-05-02T19:20:19.978Z,9.30
2023-05-02T19:23:18.849Z,9.30
2023-05-02T19:26:12.289Z,9.30
2023-05-02T19:28:59.566Z,9.30
2023-05-02T19:31:49.431Z,9.40
2023-05-02T19:34:36.905Z,9.40
2023-05-02T19:37:25.026Z,9.40
2023-05-02T19:40:13.375Z,9.40
2023-05-02T19:43:01.564Z,9.40
2023-05-02T19:45:50.162Z,9.40
2023-05-02T19:48:39.203Z,9.30
2023-05-02T19:51:28.054Z,9.20
2023-05-02T19:54:16.429Z,9.10
2023-05-02T19:57:04.492Z,9.10
2023-05-02T19:59:52.790Z,9.10
2023-05-02T20:02:40.210Z,9.10
2023-05-02T20:05:29.860Z,9.10
2023-05-02T20:08:17.903Z,9.00
2023-05-02T20:11:06.106Z,8.90
2023-05-02T20:13:54.882Z,9.00
2023-05-02T20:16:42.631Z,9.00
2023-05-02T20:19:32.180Z,8.90
2023-05-02T20:22:21.771Z,8.80
2023-05-02T20:25:11.790Z,8.70
2023-05-02T20:27:59.878Z,8.70
2023-05-02T20:30:47.080Z,8.60
2023-05-02T20:33:44.420Z,8.60
2023-05-02T20:36:33.541Z,8.60
2023-05-02T20:39:23.294Z,8.60
2023-05-02T20:42:11.426Z,8.50
2023-05-02T20:45:00.805Z,8.50
2023-05-02T20:47:48.103Z,8.50
2023-05-02T20:50:36.183Z,8.50
2023-05-02T20:53:24.116Z,8.40
2023-05-02T20:56:13.704Z,8.30
2023-05-02T20:59:01.405Z,8.30
2023-05-02T21:01:49.129Z,8.20
2023-05-02T21:04:36.299Z,8.20
2023-05-02T21:07:24.425Z,8.20
2023-05-02T21:10:11.964Z,8.20
2023-05-02T21:13:01.001Z,8.20
2023-05-02T21:15:48.220Z,8.10
2023-05-02T21:18:35.454Z,8.10
2023-05-02T21:21:23.641Z,8.00
2023-05-02T21:24:11.507Z,8.00
2023-05-02T21:26:58.797Z,7.80
2023-05-02T21:29:47.323Z,7.80
2023-05-02T21:32:35.504Z,7.70
2023-05-02T21:35:22.718Z,7.60
2023-05-02T21:38:10.467Z,7.60
2023-05-02T21:41:01.658Z,7.70
2023-05-02T21:43:49.758Z,7.70
2023-05-02T21:46:38.278Z,7.70
2023-05-02T21:49:25.476Z,7.70
2023-05-02T21:52:12.747Z,7.70
2023-05-02T21:55:00.366Z,7.60
2023-05-02T21:57:48.093Z,7.60
2023-05-02T22:00:36.955Z,7.60
2023-05-02T22:03:25.528Z,7.60
2023-05-02T22:06:13.995Z,7.70
2023-05-02T22:09:01.425Z,7.50
2023-05-02T22:11:49.088Z,7.40
2023-05-02T22:14:44.651Z,7.40
2023-05-02T22:17:34.762Z,7.30
2023-05-02T22:20:25.208Z,7.40
2023-05-02T22:23:13.222Z,7.30
2023-05-02T22:26:00.968Z,7.30
2023-05-02T22:28:48.750Z,7.20
2023-05-02T22:31:36.084Z,7.30
2023-05-02T22:34:24.283Z,7.20
2023-05-02T22:37:12.824Z,7.20
2023-05-02T22:40:01.282Z,7.10
2023-05-02T22:42:48.648Z,7.10
2023-05-02T22:45:37.773Z,7.10
2023-05-02T22:48:25.578Z,7.00
2023-05-02T22:51:13.265Z,7.00
2023-05-02T22:54:05.166Z,6.90
2023-05-02T22:56:52.908Z,6.90
2023-05-02T22:59:41.075Z,6.90
2023-05-02T23:02:28.836Z,6.90
2023-05-02T23:05:16.374Z,6.90
2023-05-02T23:08:04.635Z,6.80
2023-05-02T23:10:53.730Z,6.80
2023-05-02T23:13:40.876Z,6.80
2023-05-02T23:16:29.005Z,6.70
2023-05-02T23:19:16.810Z,6.70
2023-05-02T23:22:04.963Z,6.70
2023-05-02T23:24:52.479Z,6.70
2023-05-02T23:27:42.038Z,6.70
2023-05-02T23:30:30.060Z,6.70
2023-05-02T23:33:18.186Z,6.70
2023-05-02T23:36:07.064Z,6.70
2023-05-02T23:38:54.874Z,6.70
2023-05-02T23:41:42.313Z,6.80
2023-05-02T23:44:31.920Z,6.70
2023-05-02T23:47:20.545Z,6.70
2023-05-02T23:50:08.959Z,6.70
2023-05-02T23:52:56.146Z,6.60
2023-05-02T23:55:44.226Z,6.50
2023-05-02T23:58:31.941Z,6.50
